sensor_id;sensor_type;location;lat;lon;timestamp;temperature;humidity
23629;DHT22;11991;57.150;-2.134;2022-08-19T00:02:13;14.80;99.90
23629;DHT22;11991;57.150;-2.134;2022-08-19T00:04:40;14.70;99.90
23629;DHT22;11991;57.150;-2.134;2022-08-19T00:07:07;14.70;99.90
23629;DHT22;11991;57.150;-2.134;2022-08-19T00:09:35;14.70;99.90
23629;DHT22;11991;57.150;-2.134;2022-08-19T00:12:03;14.60;99.90
23629;DHT22;11991;57.150;-2.134;2022-08-19T00:14:30;14.60;99.90
23629;DHT22;11991;57.150;-2.134;2022-08-19T00:17:00;14.60;99.90
23629;DHT22;11991;57.150;-2.134;2022-08-19T00:19:28;14.50;99.90
23629;DHT22;11991;57.150;-2.134;2022-08-19T00:21:55;14.50;99.90
23629;DHT22;11991;57.150;-2.134;2022-08-19T00:24:23;14.50;99.90
23629;DHT22;11991;57.150;-2.134;2022-08-19T00:26:51;14.50;99.90
23629;DHT22;11991;57.150;-2.134;2022-08-19T00:29:20;14.40;99.90
23629;DHT22;11991;57.150;-2.134;2022-08-19T00:31:48;14.40;99.90
23629;DHT22;11991;57.150;-2.134;2022-08-19T00:34:16;14.40;99.90
23629;DHT22;11991;57.150;-2.134;2022-08-19T00:36:44;14.30;99.90
23629;DHT22;11991;57.150;-2.134;2022-08-19T00:39:13;14.30;99.90
23629;DHT22;11991;57.150;-2.134;2022-08-19T00:41:42;14.30;99.90
23629;DHT22;11991;57.150;-2.134;2022-08-19T00:46:43;14.20;99.90
23629;DHT22;11991;57.150;-2.134;2022-08-19T00:49:35;14.20;99.90
23629;DHT22;11991;57.150;-2.134;2022-08-19T00:52:08;14.20;99.90
23629;DHT22;11991;57.150;-2.134;2022-08-19T00:54:37;14.20;99.90
23629;DHT22;11991;57.150;-2.134;2022-08-19T00:57:10;14.10;99.90
23629;DHT22;11991;57.150;-2.134;2022-08-19T00:59:41;14.10;99.90
23629;DHT22;11991;57.150;-2.134;2022-08-19T01:02:28;14.10;99.90
23629;DHT22;11991;57.150;-2.134;2022-08-19T01:04:56;14.10;99.90
23629;DHT22;11991;57.150;-2.134;2022-08-19T01:07:23;14.10;99.90
23629;DHT22;11991;57.150;-2.134;2022-08-19T01:09:51;14.00;99.90
23629;DHT22;11991;57.150;-2.134;2022-08-19T01:12:18;13.90;99.90
23629;DHT22;11991;57.150;-2.134;2022-08-19T01:14:46;13.90;99.90
23629;DHT22;11991;57.150;-2.134;2022-08-19T01:17:15;13.80;99.90
23629;DHT22;11991;57.150;-2.134;2022-08-19T01:19:43;13.80;99.90
23629;DHT22;11991;57.150;-2.134;2022-08-19T01:24:59;13.70;99.90
23629;DHT22;11991;57.150;-2.134;2022-08-19T01:27:26;13.70;99.90
23629;DHT22;11991;57.150;-2.134;2022-08-19T01:30:12;13.70;99.90
23629;DHT22;11991;57.150;-2.134;2022-08-19T01:32:40;13.70;99.90
23629;DHT22;11991;57.150;-2.134;2022-08-19T01:35:08;13.70;99.90
23629;DHT22;11991;57.150;-2.134;2022-08-19T01:37:48;13.70;99.90
23629;DHT22;11991;57.150;-2.134;2022-08-19T01:40:17;13.70;99.90
23629;DHT22;11991;57.150;-2.134;2022-08-19T01:42:48;13.70;99.90
23629;DHT22;11991;57.150;-2.134;2022-08-19T01:45:17;13.70;99.90
23629;DHT22;11991;57.150;-2.134;2022-08-19T01:47:44;13.60;99.90
23629;DHT22;11991;57.150;-2.134;2022-08-19T01:50:29;13.60;99.90
23629;DHT22;11991;57.150;-2.134;2022-08-19T01:52:56;13.60;99.90
23629;DHT22;11991;57.150;-2.134;2022-08-19T01:55:36;13.60;99.90
23629;DHT22;11991;57.150;-2.134;2022-08-19T01:58:15;13.50;99.90
23629;DHT22;11991;57.150;-2.134;2022-08-19T02:00:44;13.50;99.90
23629;DHT22;11991;57.150;-2.134;2022-08-19T02:03:12;13.50;99.90
23629;DHT22;11991;57.150;-2.134;2022-08-19T02:05:40;13.50;99.90
23629;DHT22;11991;57.150;-2.134;2022-08-19T02:08:08;13.60;99.90
23629;DHT22;11991;57.150;-2.134;2022-08-19T02:10:42;13.60;99.90
23629;DHT22;11991;57.150;-2.134;2022-08-19T02:13:11;13.50;99.90
23629;DHT22;11991;57.150;-2.134;2022-08-19T02:15:39;13.50;99.90
23629;DHT22;11991;57.150;-2.134;2022-08-19T02:18:06;13.50;99.90
23629;DHT22;11991;57.150;-2.134;2022-08-19T02:20:35;13.50;99.90
23629;DHT22;11991;57.150;-2.134;2022-08-19T02:23:03;13.40;99.90
23629;DHT22;11991;57.150;-2.134;2022-08-19T02:25:39;13.40;99.90
23629;DHT22;11991;57.150;-2.134;2022-08-19T02:28:07;13.30;99.90
23629;DHT22;11991;57.150;-2.134;2022-08-19T02:30:34;13.30;99.90
23629;DHT22;11991;57.150;-2.134;2022-08-19T02:33:01;13.30;99.90
23629;DHT22;11991;57.150;-2.134;2022-08-19T02:35:29;13.30;99.90
23629;DHT22;11991;57.150;-2.134;2022-08-19T02:37:56;13.20;99.90
23629;DHT22;11991;57.150;-2.134;2022-08-19T02:40:48;13.20;99.90
23629;DHT22;11991;57.150;-2.134;2022-08-19T02:43:17;13.20;99.90
23629;DHT22;11991;57.150;-2.134;2022-08-19T02:45:48;13.20;99.90
23629;DHT22;11991;57.150;-2.134;2022-08-19T02:48:17;13.10;99.90
23629;DHT22;11991;57.150;-2.134;2022-08-19T02:50:49;13.10;99.90
23629;DHT22;11991;57.150;-2.134;2022-08-19T02:53:24;13.10;99.90
23629;DHT22;11991;57.150;-2.134;2022-08-19T02:55:52;13.10;99.90
23629;DHT22;11991;57.150;-2.134;2022-08-19T02:58:20;13.10;99.90
23629;DHT22;11991;57.150;-2.134;2022-08-19T03:00:52;13.00;99.90
23629;DHT22;11991;57.150;-2.134;2022-08-19T03:03:19;13.00;99.90
23629;DHT22;11991;57.150;-2.134;2022-08-19T03:05:47;13.00;99.90
23629;DHT22;11991;57.150;-2.134;2022-08-19T03:08:23;12.90;99.90
23629;DHT22;11991;57.150;-2.134;2022-08-19T03:10:51;13.00;99.90
23629;DHT22;11991;57.150;-2.134;2022-08-19T03:13:20;13.00;99.90
23629;DHT22;11991;57.150;-2.134;2022-08-19T03:15:47;13.00;99.90
23629;DHT22;11991;57.150;-2.134;2022-08-19T03:18:16;13.00;99.90
23629;DHT22;11991;57.150;-2.134;2022-08-19T03:20:46;12.90;99.90
23629;DHT22;11991;57.150;-2.134;2022-08-19T03:23:15;12.90;99.90
23629;DHT22;11991;57.150;-2.134;2022-08-19T03:25:45;12.90;99.90
23629;DHT22;11991;57.150;-2.134;2022-08-19T03:28:24;12.80;99.90
23629;DHT22;11991;57.150;-2.134;2022-08-19T03:31:07;12.80;99.90
23629;DHT22;11991;57.150;-2.134;2022-08-19T03:33:55;12.80;99.90
23629;DHT22;11991;57.150;-2.134;2022-08-19T03:36:24;12.80;99.90
23629;DHT22;11991;57.150;-2.134;2022-08-19T03:38:59;12.80;99.90
23629;DHT22;11991;57.150;-2.134;2022-08-19T03:41:47;12.80;99.90
23629;DHT22;11991;57.150;-2.134;2022-08-19T03:44:36;12.70;99.90
23629;DHT22;11991;57.150;-2.134;2022-08-19T03:47:04;12.70;99.90
23629;DHT22;11991;57.150;-2.134;2022-08-19T03:49:32;12.80;99.90
23629;DHT22;11991;57.150;-2.134;2022-08-19T03:52:03;12.80;99.90
23629;DHT22;11991;57.150;-2.134;2022-08-19T03:54:34;12.80;99.90
23629;DHT22;11991;57.150;-2.134;2022-08-19T03:57:02;12.70;99.90
23629;DHT22;11991;57.150;-2.134;2022-08-19T03:59:34;12.70;99.90
23629;DHT22;11991;57.150;-2.134;2022-08-19T04:02:09;12.60;99.90
23629;DHT22;11991;57.150;-2.134;2022-08-19T04:04:39;12.60;99.90
23629;DHT22;11991;57.150;-2.134;2022-08-19T04:07:08;12.50;99.90
23629;DHT22;11991;57.150;-2.134;2022-08-19T04:09:36;12.50;99.90
23629;DHT22;11991;57.150;-2.134;2022-08-19T04:12:04;12.50;99.90
23629;DHT22;11991;57.150;-2.134;2022-08-19T04:14:33;12.50;99.90
23629;DHT22;11991;57.150;-2.134;2022-08-19T04:17:02;12.40;99.90
23629;DHT22;11991;57.150;-2.134;2022-08-19T04:19:33;12.40;99.90
23629;DHT22;11991;57.150;-2.134;2022-08-19T04:22:01;12.40;99.90
23629;DHT22;11991;57.150;-2.134;2022-08-19T04:24:28;12.40;99.90
23629;DHT22;11991;57.150;-2.134;2022-08-19T04:26:55;12.40;99.90
23629;DHT22;11991;57.150;-2.134;2022-08-19T04:29:24;12.50;99.90
23629;DHT22;11991;57.150;-2.134;2022-08-19T04:31:55;12.50;99.90
23629;DHT22;11991;57.150;-2.134;2022-08-19T04:34:25;12.50;99.90
23629;DHT22;11991;57.150;-2.134;2022-08-19T04:36:54;12.50;99.90
23629;DHT22;11991;57.150;-2.134;2022-08-19T04:39:25;12.50;99.90
23629;DHT22;11991;57.150;-2.134;2022-08-19T04:42:12;12.50;99.90
23629;DHT22;11991;57.150;-2.134;2022-08-19T04:44:58;12.50;99.90
23629;DHT22;11991;57.150;-2.134;2022-08-19T04:47:26;12.50;99.90
23629;DHT22;11991;57.150;-2.134;2022-08-19T04:50:13;12.60;99.90
23629;DHT22;11991;57.150;-2.134;2022-08-19T04:52:44;12.60;99.90
23629;DHT22;11991;57.150;-2.134;2022-08-19T04:55:12;12.50;99.90
23629;DHT22;11991;57.150;-2.134;2022-08-19T04:57:39;12.50;99.90
23629;DHT22;11991;57.150;-2.134;2022-08-19T05:00:09;12.50;99.90
23629;DHT22;11991;57.150;-2.134;2022-08-19T05:02:37;12.50;99.90
23629;DHT22;11991;57.150;-2.134;2022-08-19T05:05:04;12.50;99.90
23629;DHT22;11991;57.150;-2.134;2022-08-19T05:07:34;12.50;99.90
23629;DHT22;11991;57.150;-2.134;2022-08-19T05:10:02;12.50;99.90
23629;DHT22;11991;57.150;-2.134;2022-08-19T05:12:29;12.50;99.90
23629;DHT22;11991;57.150;-2.134;2022-08-19T05:14:58;12.50;99.90
23629;DHT22;11991;57.150;-2.134;2022-08-19T05:17:26;12.50;99.90
23629;DHT22;11991;57.150;-2.134;2022-08-19T05:19:56;12.50;99.90
23629;DHT22;11991;57.150;-2.134;2022-08-19T05:22:43;12.50;99.90
23629;DHT22;11991;57.150;-2.134;2022-08-19T05:25:15;12.50;99.90
23629;DHT22;11991;57.150;-2.134;2022-08-19T05:27:45;12.50;99.90
23629;DHT22;11991;57.150;-2.134;2022-08-19T05:30:13;12.50;99.90
23629;DHT22;11991;57.150;-2.134;2022-08-19T05:32:40;12.50;99.90
23629;DHT22;11991;57.150;-2.134;2022-08-19T05:35:08;12.50;99.90
23629;DHT22;11991;57.150;-2.134;2022-08-19T05:37:37;12.60;99.90
23629;DHT22;11991;57.150;-2.134;2022-08-19T05:40:08;12.60;99.90
23629;DHT22;11991;57.150;-2.134;2022-08-19T05:42:37;12.60;99.90
23629;DHT22;11991;57.150;-2.134;2022-08-19T05:45:04;12.70;99.90
23629;DHT22;11991;57.150;-2.134;2022-08-19T05:47:32;12.70;99.90
23629;DHT22;11991;57.150;-2.134;2022-08-19T05:49:59;12.70;99.90
23629;DHT22;11991;57.150;-2.134;2022-08-19T05:52:31;12.80;99.90
23629;DHT22;11991;57.150;-2.134;2022-08-19T05:54:59;12.80;99.90
23629;DHT22;11991;57.150;-2.134;2022-08-19T05:57:26;12.80;99.90
23629;DHT22;11991;57.150;-2.134;2022-08-19T05:59:56;12.80;99.90
23629;DHT22;11991;57.150;-2.134;2022-08-19T06:02:26;12.90;99.90
23629;DHT22;11991;57.150;-2.134;2022-08-19T06:04:54;12.90;99.90
23629;DHT22;11991;57.150;-2.134;2022-08-19T06:07:21;13.00;99.90
23629;DHT22;11991;57.150;-2.134;2022-08-19T06:09:49;13.10;99.90
23629;DHT22;11991;57.150;-2.134;2022-08-19T06:12:36;13.10;99.90
23629;DHT22;11991;57.150;-2.134;2022-08-19T06:15:08;13.10;99.90
23629;DHT22;11991;57.150;-2.134;2022-08-19T06:17:36;13.20;99.90
23629;DHT22;11991;57.150;-2.134;2022-08-19T06:20:06;13.20;99.90
23629;DHT22;11991;57.150;-2.134;2022-08-19T06:22:42;13.20;99.90
23629;DHT22;11991;57.150;-2.134;2022-08-19T06:25:11;13.20;99.90
23629;DHT22;11991;57.150;-2.134;2022-08-19T06:27:39;13.20;99.90
23629;DHT22;11991;57.150;-2.134;2022-08-19T06:30:27;13.20;99.90
23629;DHT22;11991;57.150;-2.134;2022-08-19T06:32:54;13.20;99.90
23629;DHT22;11991;57.150;-2.134;2022-08-19T06:35:22;13.30;99.90
23629;DHT22;11991;57.150;-2.134;2022-08-19T06:37:49;13.30;99.90
23629;DHT22;11991;57.150;-2.134;2022-08-19T06:40:17;13.30;99.90
23629;DHT22;11991;57.150;-2.134;2022-08-19T06:42:44;13.30;99.90
23629;DHT22;11991;57.150;-2.134;2022-08-19T06:45:24;13.30;99.90
23629;DHT22;11991;57.150;-2.134;2022-08-19T06:48:05;13.30;99.90
23629;DHT22;11991;57.150;-2.134;2022-08-19T06:50:33;13.40;99.90
23629;DHT22;11991;57.150;-2.134;2022-08-19T06:53:05;13.40;99.90
23629;DHT22;11991;57.150;-2.134;2022-08-19T06:55:32;13.50;99.90
23629;DHT22;11991;57.150;-2.134;2022-08-19T06:58:04;13.50;99.90
23629;DHT22;11991;57.150;-2.134;2022-08-19T07:00:32;13.60;99.90
23629;DHT22;11991;57.150;-2.134;2022-08-19T07:02:59;13.60;99.90
23629;DHT22;11991;57.150;-2.134;2022-08-19T07:05:39;13.70;99.90
23629;DHT22;11991;57.150;-2.134;2022-08-19T07:08:09;13.80;99.90
23629;DHT22;11991;57.150;-2.134;2022-08-19T07:10:36;13.80;99.90
23629;DHT22;11991;57.150;-2.134;2022-08-19T07:13:08;13.90;99.90
23629;DHT22;11991;57.150;-2.134;2022-08-19T07:15:36;13.90;99.90
23629;DHT22;11991;57.150;-2.134;2022-08-19T07:18:05;14.00;99.90
23629;DHT22;11991;57.150;-2.134;2022-08-19T07:20:37;14.00;99.90
23629;DHT22;11991;57.150;-2.134;2022-08-19T07:23:08;14.10;99.90
23629;DHT22;11991;57.150;-2.134;2022-08-19T07:25:41;14.20;99.90
23629;DHT22;11991;57.150;-2.134;2022-08-19T07:28:10;14.20;99.90
23629;DHT22;11991;57.150;-2.134;2022-08-19T07:30:51;14.30;99.90
23629;DHT22;11991;57.150;-2.134;2022-08-19T07:33:19;14.40;99.90
23629;DHT22;11991;57.150;-2.134;2022-08-19T07:35:46;14.40;99.90
23629;DHT22;11991;57.150;-2.134;2022-08-19T07:38:15;14.40;99.90
23629;DHT22;11991;57.150;-2.134;2022-08-19T07:40:44;14.50;99.90
23629;DHT22;11991;57.150;-2.134;2022-08-19T07:43:13;14.50;99.90
23629;DHT22;11991;57.150;-2.134;2022-08-19T07:45:44;14.60;99.90
23629;DHT22;11991;57.150;-2.134;2022-08-19T07:48:12;14.60;99.90
23629;DHT22;11991;57.150;-2.134;2022-08-19T07:50:40;14.70;99.90
23629;DHT22;11991;57.150;-2.134;2022-08-19T07:53:07;14.70;99.90
23629;DHT22;11991;57.150;-2.134;2022-08-19T07:55:34;14.80;99.90
23629;DHT22;11991;57.150;-2.134;2022-08-19T07:58:09;14.90;99.90
23629;DHT22;11991;57.150;-2.134;2022-08-19T08:00:37;14.90;99.90
23629;DHT22;11991;57.150;-2.134;2022-08-19T08:03:04;14.90;99.90
23629;DHT22;11991;57.150;-2.134;2022-08-19T08:05:31;15.00;99.90
23629;DHT22;11991;57.150;-2.134;2022-08-19T08:08:17;15.00;99.90
23629;DHT22;11991;57.150;-2.134;2022-08-19T08:11:12;15.10;99.90
23629;DHT22;11991;57.150;-2.134;2022-08-19T08:13:41;15.10;99.90
23629;DHT22;11991;57.150;-2.134;2022-08-19T08:16:09;15.20;99.90
23629;DHT22;11991;57.150;-2.134;2022-08-19T08:18:40;15.20;99.90
23629;DHT22;11991;57.150;-2.134;2022-08-19T08:21:19;15.30;99.90
23629;DHT22;11991;57.150;-2.134;2022-08-19T08:23:46;15.40;99.90
23629;DHT22;11991;57.150;-2.134;2022-08-19T08:26:14;15.40;99.90
23629;DHT22;11991;57.150;-2.134;2022-08-19T08:28:45;15.50;99.90
23629;DHT22;11991;57.150;-2.134;2022-08-19T08:31:15;15.50;99.90
23629;DHT22;11991;57.150;-2.134;2022-08-19T08:33:43;15.50;99.90
23629;DHT22;11991;57.150;-2.134;2022-08-19T08:36:11;15.50;99.90
23629;DHT22;11991;57.150;-2.134;2022-08-19T08:38:41;15.60;99.90
23629;DHT22;11991;57.150;-2.134;2022-08-19T08:43:57;15.60;99.90
23629;DHT22;11991;57.150;-2.134;2022-08-19T08:51:46;15.80;99.90
23629;DHT22;11991;57.150;-2.134;2022-08-19T08:54:35;15.80;99.90
23629;DHT22;11991;57.150;-2.134;2022-08-19T08:57:07;15.90;99.90
23629;DHT22;11991;57.150;-2.134;2022-08-19T08:59:40;15.90;99.90
23629;DHT22;11991;57.150;-2.134;2022-08-19T09:02:08;16.00;99.90
23629;DHT22;11991;57.150;-2.134;2022-08-19T09:04:36;16.00;99.90
23629;DHT22;11991;57.150;-2.134;2022-08-19T09:07:21;16.10;99.90
23629;DHT22;11991;57.150;-2.134;2022-08-19T09:10:30;16.10;99.90
23629;DHT22;11991;57.150;-2.134;2022-08-19T09:13:15;16.20;99.90
23629;DHT22;11991;57.150;-2.134;2022-08-19T09:15:56;16.30;99.90
23629;DHT22;11991;57.150;-2.134;2022-08-19T09:18:24;16.30;99.90
23629;DHT22;11991;57.150;-2.134;2022-08-19T09:20:55;16.40;99.90
23629;DHT22;11991;57.150;-2.134;2022-08-19T09:23:23;16.50;99.90
23629;DHT22;11991;57.150;-2.134;2022-08-19T09:25:53;16.60;99.90
23629;DHT22;11991;57.150;-2.134;2022-08-19T09:28:20;16.70;99.90
23629;DHT22;11991;57.150;-2.134;2022-08-19T09:30:53;16.70;99.90
23629;DHT22;11991;57.150;-2.134;2022-08-19T09:33:20;16.70;99.90
23629;DHT22;11991;57.150;-2.134;2022-08-19T09:35:48;16.80;99.90
23629;DHT22;11991;57.150;-2.134;2022-08-19T09:38:20;16.80;99.90
23629;DHT22;11991;57.150;-2.134;2022-08-19T09:40:48;16.80;99.90
23629;DHT22;11991;57.150;-2.134;2022-08-19T09:43:17;16.80;99.90
23629;DHT22;11991;57.150;-2.134;2022-08-19T09:46:00;16.90;99.90
23629;DHT22;11991;57.150;-2.134;2022-08-19T09:48:28;17.00;99.90
23629;DHT22;11991;57.150;-2.134;2022-08-19T09:51:06;17.00;99.90
23629;DHT22;11991;57.150;-2.134;2022-08-19T09:53:38;17.10;99.90
23629;DHT22;11991;57.150;-2.134;2022-08-19T09:56:06;17.10;99.90
23629;DHT22;11991;57.150;-2.134;2022-08-19T09:58:35;17.20;99.90
23629;DHT22;11991;57.150;-2.134;2022-08-19T10:01:04;17.20;99.90
23629;DHT22;11991;57.150;-2.134;2022-08-19T10:03:34;17.30;99.90
23629;DHT22;11991;57.150;-2.134;2022-08-19T10:06:04;17.50;99.90
23629;DHT22;11991;57.150;-2.134;2022-08-19T10:08:41;17.60;99.90
23629;DHT22;11991;57.150;-2.134;2022-08-19T10:11:18;17.60;99.90
23629;DHT22;11991;57.150;-2.134;2022-08-19T10:14:01;17.60;99.90
23629;DHT22;11991;57.150;-2.134;2022-08-19T10:16:29;17.70;99.90
23629;DHT22;11991;57.150;-2.134;2022-08-19T10:18:56;17.60;99.90
23629;DHT22;11991;57.150;-2.134;2022-08-19T10:21:33;17.60;99.90
23629;DHT22;11991;57.150;-2.134;2022-08-19T10:24:04;17.60;99.90
23629;DHT22;11991;57.150;-2.134;2022-08-19T10:26:38;17.60;99.90
23629;DHT22;11991;57.150;-2.134;2022-08-19T10:29:09;17.60;99.90
23629;DHT22;11991;57.150;-2.134;2022-08-19T10:31:36;17.60;99.90
23629;DHT22;11991;57.150;-2.134;2022-08-19T10:34:24;17.60;99.90
23629;DHT22;11991;57.150;-2.134;2022-08-19T10:36:55;17.60;99.90
23629;DHT22;11991;57.150;-2.134;2022-08-19T10:39:29;17.60;99.90
23629;DHT22;11991;57.150;-2.134;2022-08-19T10:41:58;17.60;99.90
23629;DHT22;11991;57.150;-2.134;2022-08-19T10:44:26;17.60;99.90
23629;DHT22;11991;57.150;-2.134;2022-08-19T10:46:59;17.70;99.90
23629;DHT22;11991;57.150;-2.134;2022-08-19T10:49:27;17.70;99.90
23629;DHT22;11991;57.150;-2.134;2022-08-19T10:51:55;17.70;99.90
23629;DHT22;11991;57.150;-2.134;2022-08-19T10:54:47;17.70;99.90
23629;DHT22;11991;57.150;-2.134;2022-08-19T10:57:35;17.80;99.90
23629;DHT22;11991;57.150;-2.134;2022-08-19T11:00:23;17.80;99.90
23629;DHT22;11991;57.150;-2.134;2022-08-19T11:02:51;17.90;99.90
23629;DHT22;11991;57.150;-2.134;2022-08-19T11:05:22;17.90;99.90
23629;DHT22;11991;57.150;-2.134;2022-08-19T11:07:50;17.90;99.90
23629;DHT22;11991;57.150;-2.134;2022-08-19T11:10:19;18.10;99.90
23629;DHT22;11991;57.150;-2.134;2022-08-19T11:12:48;18.00;99.90
23629;DHT22;11991;57.150;-2.134;2022-08-19T11:15:17;17.90;99.90
23629;DHT22;11991;57.150;-2.134;2022-08-19T11:17:45;17.90;99.90
23629;DHT22;11991;57.150;-2.134;2022-08-19T11:20:13;17.90;99.90
23629;DHT22;11991;57.150;-2.134;2022-08-19T11:22:41;18.00;99.90
23629;DHT22;11991;57.150;-2.134;2022-08-19T11:25:10;18.00;99.90
23629;DHT22;11991;57.150;-2.134;2022-08-19T11:27:41;17.90;99.90
23629;DHT22;11991;57.150;-2.134;2022-08-19T11:30:14;17.90;99.90
23629;DHT22;11991;57.150;-2.134;2022-08-19T11:32:42;18.00;99.90
23629;DHT22;11991;57.150;-2.134;2022-08-19T11:35:15;18.10;99.90
23629;DHT22;11991;57.150;-2.134;2022-08-19T11:37:43;18.10;99.90
23629;DHT22;11991;57.150;-2.134;2022-08-19T11:40:11;18.20;99.90
23629;DHT22;11991;57.150;-2.134;2022-08-19T11:42:38;18.20;99.90
23629;DHT22;11991;57.150;-2.134;2022-08-19T11:45:26;18.30;99.90
23629;DHT22;11991;57.150;-2.134;2022-08-19T11:47:54;18.40;99.90
23629;DHT22;11991;57.150;-2.134;2022-08-19T11:50:23;18.40;99.90
23629;DHT22;11991;57.150;-2.134;2022-08-19T11:52:54;18.50;99.90
23629;DHT22;11991;57.150;-2.134;2022-08-19T11:55:21;18.50;99.90
23629;DHT22;11991;57.150;-2.134;2022-08-19T11:57:49;18.50;99.90
23629;DHT22;11991;57.150;-2.134;2022-08-19T12:00:16;18.50;99.90
23629;DHT22;11991;57.150;-2.134;2022-08-19T12:02:44;18.50;99.90
23629;DHT22;11991;57.150;-2.134;2022-08-19T12:05:11;18.50;99.90
23629;DHT22;11991;57.150;-2.134;2022-08-19T12:07:39;18.50;99.90
23629;DHT22;11991;57.150;-2.134;2022-08-19T12:10:10;18.60;99.90
23629;DHT22;11991;57.150;-2.134;2022-08-19T12:12:38;18.70;99.90
23629;DHT22;11991;57.150;-2.134;2022-08-19T12:15:13;18.70;99.90
23629;DHT22;11991;57.150;-2.134;2022-08-19T12:17:42;18.80;99.90
23629;DHT22;11991;57.150;-2.134;2022-08-19T12:20:12;18.80;99.90
23629;DHT22;11991;57.150;-2.134;2022-08-19T12:22:41;18.90;99.90
23629;DHT22;11991;57.150;-2.134;2022-08-19T12:25:12;18.90;99.90
23629;DHT22;11991;57.150;-2.134;2022-08-19T12:27:39;18.90;99.90
23629;DHT22;11991;57.150;-2.134;2022-08-19T12:30:13;18.90;99.90
23629;DHT22;11991;57.150;-2.134;2022-08-19T12:32:40;18.90;99.90
23629;DHT22;11991;57.150;-2.134;2022-08-19T12:35:08;18.90;99.90
23629;DHT22;11991;57.150;-2.134;2022-08-19T12:37:38;19.00;99.90
23629;DHT22;11991;57.150;-2.134;2022-08-19T12:40:06;19.10;99.90
23629;DHT22;11991;57.150;-2.134;2022-08-19T12:42:34;19.20;99.90
23629;DHT22;11991;57.150;-2.134;2022-08-19T12:45:01;19.30;99.90
23629;DHT22;11991;57.150;-2.134;2022-08-19T12:47:32;19.40;99.90
23629;DHT22;11991;57.150;-2.134;2022-08-19T12:50:04;19.30;99.90
23629;DHT22;11991;57.150;-2.134;2022-08-19T12:52:34;19.30;99.90
23629;DHT22;11991;57.150;-2.134;2022-08-19T12:55:05;19.40;99.90
23629;DHT22;11991;57.150;-2.134;2022-08-19T12:57:33;19.40;99.90
23629;DHT22;11991;57.150;-2.134;2022-08-19T13:00:12;19.60;99.90
23629;DHT22;11991;57.150;-2.134;2022-08-19T13:02:44;19.70;99.90
23629;DHT22;11991;57.150;-2.134;2022-08-19T13:05:18;19.70;99.90
23629;DHT22;11991;57.150;-2.134;2022-08-19T13:07:51;19.70;99.90
23629;DHT22;11991;57.150;-2.134;2022-08-19T13:10:20;19.80;99.90
23629;DHT22;11991;57.150;-2.134;2022-08-19T13:12:50;19.80;99.90
23629;DHT22;11991;57.150;-2.134;2022-08-19T13:15:19;19.80;99.90
23629;DHT22;11991;57.150;-2.134;2022-08-19T13:18:01;19.90;99.90
23629;DHT22;11991;57.150;-2.134;2022-08-19T13:20:29;19.90;99.90
23629;DHT22;11991;57.150;-2.134;2022-08-19T13:22:56;19.70;99.90
23629;DHT22;11991;57.150;-2.134;2022-08-19T13:25:24;19.70;99.90
23629;DHT22;11991;57.150;-2.134;2022-08-19T13:27:52;19.80;99.90
23629;DHT22;11991;57.150;-2.134;2022-08-19T13:30:20;19.80;99.90
23629;DHT22;11991;57.150;-2.134;2022-08-19T13:33:08;20.00;99.90
23629;DHT22;11991;57.150;-2.134;2022-08-19T13:35:45;20.10;99.90
23629;DHT22;11991;57.150;-2.134;2022-08-19T13:38:14;20.20;99.90
23629;DHT22;11991;57.150;-2.134;2022-08-19T13:40:44;20.20;99.90
23629;DHT22;11991;57.150;-2.134;2022-08-19T13:43:11;20.30;99.90
23629;DHT22;11991;57.150;-2.134;2022-08-19T13:45:53;20.30;99.90
23629;DHT22;11991;57.150;-2.134;2022-08-19T13:48:23;20.20;99.90
23629;DHT22;11991;57.150;-2.134;2022-08-19T13:50:53;20.10;99.90
23629;DHT22;11991;57.150;-2.134;2022-08-19T13:53:21;20.10;99.90
23629;DHT22;11991;57.150;-2.134;2022-08-19T13:55:48;20.10;99.90
23629;DHT22;11991;57.150;-2.134;2022-08-19T13:58:17;20.10;99.90
23629;DHT22;11991;57.150;-2.134;2022-08-19T14:00:46;20.20;99.90
23629;DHT22;11991;57.150;-2.134;2022-08-19T14:03:14;20.20;99.90
23629;DHT22;11991;57.150;-2.134;2022-08-19T14:05:42;20.20;99.90
23629;DHT22;11991;57.150;-2.134;2022-08-19T14:08:09;20.10;99.90
23629;DHT22;11991;57.150;-2.134;2022-08-19T14:10:36;20.00;99.90
23629;DHT22;11991;57.150;-2.134;2022-08-19T14:13:04;20.00;99.90
23629;DHT22;11991;57.150;-2.134;2022-08-19T14:15:31;20.00;99.90
23629;DHT22;11991;57.150;-2.134;2022-08-19T14:17:59;20.00;99.90
23629;DHT22;11991;57.150;-2.134;2022-08-19T14:20:26;20.00;99.90
23629;DHT22;11991;57.150;-2.134;2022-08-19T14:22:54;20.10;99.90
23629;DHT22;11991;57.150;-2.134;2022-08-19T14:25:26;20.10;99.90
23629;DHT22;11991;57.150;-2.134;2022-08-19T14:27:55;20.10;99.90
23629;DHT22;11991;57.150;-2.134;2022-08-19T14:30:28;20.10;99.90
23629;DHT22;11991;57.150;-2.134;2022-08-19T14:32:58;20.20;99.90
23629;DHT22;11991;57.150;-2.134;2022-08-19T14:35:28;20.20;99.90
23629;DHT22;11991;57.150;-2.134;2022-08-19T14:37:56;20.10;99.90
23629;DHT22;11991;57.150;-2.134;2022-08-19T14:40:27;20.00;99.90
23629;DHT22;11991;57.150;-2.134;2022-08-19T14:42:57;20.00;99.90
23629;DHT22;11991;57.150;-2.134;2022-08-19T14:45:29;19.90;99.90
23629;DHT22;11991;57.150;-2.134;2022-08-19T14:47:58;19.90;99.90
23629;DHT22;11991;57.150;-2.134;2022-08-19T14:50:27;19.90;99.90
23629;DHT22;11991;57.150;-2.134;2022-08-19T14:53:08;19.80;99.90
23629;DHT22;11991;57.150;-2.134;2022-08-19T14:55:43;19.80;99.90
23629;DHT22;11991;57.150;-2.134;2022-08-19T14:58:12;19.70;99.90
23629;DHT22;11991;57.150;-2.134;2022-08-19T15:00:57;19.70;99.90
23629;DHT22;11991;57.150;-2.134;2022-08-19T15:03:28;19.60;99.90
23629;DHT22;11991;57.150;-2.134;2022-08-19T15:05:56;19.60;99.90
23629;DHT22;11991;57.150;-2.134;2022-08-19T15:08:26;19.50;99.90
23629;DHT22;11991;57.150;-2.134;2022-08-19T15:10:54;19.50;99.90
23629;DHT22;11991;57.150;-2.134;2022-08-19T15:13:22;19.40;99.90
23629;DHT22;11991;57.150;-2.134;2022-08-19T15:15:51;19.40;99.90
23629;DHT22;11991;57.150;-2.134;2022-08-19T15:18:31;19.40;99.90
23629;DHT22;11991;57.150;-2.134;2022-08-19T15:20:59;19.40;99.90
23629;DHT22;11991;57.150;-2.134;2022-08-19T15:23:26;19.40;99.90
23629;DHT22;11991;57.150;-2.134;2022-08-19T15:25:54;19.40;99.90
23629;DHT22;11991;57.150;-2.134;2022-08-19T15:28:23;19.40;99.90
23629;DHT22;11991;57.150;-2.134;2022-08-19T15:30:52;19.30;99.90
23629;DHT22;11991;57.150;-2.134;2022-08-19T15:33:19;19.30;99.90
23629;DHT22;11991;57.150;-2.134;2022-08-19T15:35:47;19.30;99.90
23629;DHT22;11991;57.150;-2.134;2022-08-19T15:38:18;19.30;99.90
23629;DHT22;11991;57.150;-2.134;2022-08-19T15:40:49;19.20;99.90
23629;DHT22;11991;57.150;-2.134;2022-08-19T15:43:18;19.20;99.90
23629;DHT22;11991;57.150;-2.134;2022-08-19T15:45:46;19.20;99.90
23629;DHT22;11991;57.150;-2.134;2022-08-19T15:48:15;19.20;99.90
23629;DHT22;11991;57.150;-2.134;2022-08-19T15:54:03;19.00;99.90
23629;DHT22;11991;57.150;-2.134;2022-08-19T15:56:31;19.10;99.90